sensor_id;sensor_type;location;lat;lon;timestamp;noise_LAeq;noise_LA_min;noise_LA_max;noise_LA01;noise_LA95
47109;Laerm;32856;51.422;6.794;2024-01-16T00:00:40;45.71;41.46;53.54;;
47109;Laerm;32856;51.422;6.794;2024-01-16T00:03:07;51.93;43.14;59.05;;
47109;Laerm;32856;51.422;6.794;2024-01-16T00:05:36;44.94;41.82;53.18;;
47109;Laerm;32856;51.422;6.794;2024-01-16T00:08:03;45.65;40.13;53.74;;
47109;Laerm;32856;51.422;6.794;2024-01-16T00:10:31;44.04;40.53;52.43;;
47109;Laerm;32856;51.422;6.794;2024-01-16T00:12:58;44.01;39.81;50.86;;
47109;Laerm;32856;51.422;6.794;2024-01-16T00:15:26;44.73;40.62;50.84;;
47109;Laerm;32856;51.422;6.794;2024-01-16T00:17:53;55.69;42.16;73.61;;
47109;Laerm;32856;51.422;6.794;2024-01-16T00:20:21;46.59;41.53;50.19;;
47109;Laerm;32856;51.422;6.794;2024-01-16T00:22:51;45.20;41.68;52.83;;
47109;Laerm;32856;51.422;6.794;2024-01-16T00:25:18;45.18;40.23;50.43;;
47109;Laerm;32856;51.422;6.794;2024-01-16T00:27:46;49.56;42.22;59.43;;
47109;Laerm;32856;51.422;6.794;2024-01-16T00:30:13;53.75;40.03;72.55;;
47109;Laerm;32856;51.422;6.794;2024-01-16T00:32:41;61.90;43.54;79.14;;
47109;Laerm;32856;51.422;6.794;2024-01-16T00:35:08;46.13;39.70;58.95;;
47109;Laerm;32856;51.422;6.794;2024-01-16T00:37:36;49.67;40.43;64.12;;
47109;Laerm;32856;51.422;6.794;2024-01-16T00:40:06;43.56;40.03;48.73;;
47109;Laerm;32856;51.422;6.794;2024-01-16T00:42:35;54.38;40.13;71.23;;
47109;Laerm;32856;51.422;6.794;2024-01-16T00:45:02;46.80;40.13;53.17;;
47109;Laerm;32856;51.422;6.794;2024-01-16T00:47:30;44.97;40.62;50.06;;
47109;Laerm;32856;51.422;6.794;2024-01-16T00:49:58;46.23;42.71;54.90;;
47109;Laerm;32856;51.422;6.794;2024-01-16T00:52:26;52.05;43.04;59.99;;
47109;Laerm;32856;51.422;6.794;2024-01-16T00:54:53;44.31;39.08;59.87;;
47109;Laerm;32856;51.422;6.794;2024-01-16T00:57:22;46.09;40.62;52.24;;
47109;Laerm;32856;51.422;6.794;2024-01-16T00:59:49;56.00;41.30;74.01;;
47109;Laerm;32856;51.422;6.794;2024-01-16T01:02:17;50.80;41.30;64.99;;
47109;Laerm;32856;51.422;6.794;2024-01-16T01:04:44;48.26;39.21;56.59;;
47109;Laerm;32856;51.422;6.794;2024-01-16T01:07:12;50.84;41.22;59.66;;
47109;Laerm;32856;51.422;6.794;2024-01-16T01:09:40;46.07;38.67;52.98;;
47109;Laerm;32856;51.422;6.794;2024-01-16T01:12:07;46.91;41.14;55.92;;
47109;Laerm;32856;51.422;6.794;2024-01-16T01:14:36;44.32;40.23;54.02;;
47109;Laerm;32856;51.422;6.794;2024-01-16T01:17:04;54.53;40.23;72.15;;
47109;Laerm;32856;51.422;6.794;2024-01-16T01:19:31;63.46;42.47;78.54;;
47109;Laerm;32856;51.422;6.794;2024-01-16T01:21:59;46.39;40.80;54.17;;
47109;Laerm;32856;51.422;6.794;2024-01-16T01:24:26;47.58;42.29;53.06;;
47109;Laerm;32856;51.422;6.794;2024-01-16T01:26:53;46.51;42.22;54.85;;
47109;Laerm;32856;51.422;6.794;2024-01-16T01:29:21;45.69;40.80;52.23;;
47109;Laerm;32856;51.422;6.794;2024-01-16T01:31:49;45.93;40.80;50.91;;
47109;Laerm;32856;51.422;6.794;2024-01-16T01:34:17;55.60;40.89;73.61;;
47109;Laerm;32856;51.422;6.794;2024-01-16T01:36:44;44.22;39.92;54.12;;
47109;Laerm;32856;51.422;6.794;2024-01-16T01:39:11;45.82;41.14;53.13;;
47109;Laerm;32856;51.422;6.794;2024-01-16T01:41:39;46.51;40.71;56.21;;
47109;Laerm;32856;51.422;6.794;2024-01-16T01:44:07;47.87;42.13;53.50;;
47109;Laerm;32856;51.422;6.794;2024-01-16T01:46:41;53.13;43.49;69.58;;
47109;Laerm;32856;51.422;6.794;2024-01-16T01:49:10;46.97;42.59;53.48;;
47109;Laerm;32856;51.422;6.794;2024-01-16T01:51:38;44.73;41.06;48.80;;
47109;Laerm;32856;51.422;6.794;2024-01-16T01:54:06;48.49;41.03;56.61;;
47109;Laerm;32856;51.422;6.794;2024-01-16T01:56:33;45.52;40.13;51.72;;
47109;Laerm;32856;51.422;6.794;2024-01-16T01:59:01;48.25;42.41;53.79;;
47109;Laerm;32856;51.422;6.794;2024-01-16T02:01:29;46.94;42.71;51.40;;
47109;Laerm;32856;51.422;6.794;2024-01-16T02:03:56;53.63;41.96;69.17;;
47109;Laerm;32856;51.422;6.794;2024-01-16T02:06:26;48.31;42.41;55.95;;
47109;Laerm;32856;51.422;6.794;2024-01-16T02:08:53;49.17;41.06;55.06;;
47109;Laerm;32856;51.422;6.794;2024-01-16T02:11:21;49.63;39.58;55.69;;
47109;Laerm;32856;51.422;6.794;2024-01-16T02:13:48;48.05;41.89;57.52;;
47109;Laerm;32856;51.422;6.794;2024-01-16T02:16:19;45.74;41.38;53.01;;
47109;Laerm;32856;51.422;6.794;2024-01-16T02:18:47;46.03;41.14;51.91;;
47109;Laerm;32856;51.422;6.794;2024-01-16T02:21:15;53.44;42.29;70.34;;
47109;Laerm;32856;51.422;6.794;2024-01-16T02:23:44;49.89;43.39;56.57;;
47109;Laerm;32856;51.422;6.794;2024-01-16T02:26:12;47.03;42.09;52.24;;
47109;Laerm;32856;51.422;6.794;2024-01-16T02:28:40;53.49;40.89;70.16;;
47109;Laerm;32856;51.422;6.794;2024-01-16T02:31:07;46.35;38.05;56.12;;
47109;Laerm;32856;51.422;6.794;2024-01-16T02:33:34;46.14;43.09;50.78;;
47109;Laerm;32856;51.422;6.794;2024-01-16T02:36:02;45.91;42.22;60.14;;
47109;Laerm;32856;51.422;6.794;2024-01-16T02:38:29;47.69;43.19;55.06;;
47109;Laerm;32856;51.422;6.794;2024-01-16T02:40:58;46.58;42.03;60.44;;
47109;Laerm;32856;51.422;6.794;2024-01-16T02:43:25;50.31;43.81;59.25;;
47109;Laerm;32856;51.422;6.794;2024-01-16T02:45:53;47.82;41.75;54.64;;
47109;Laerm;32856;51.422;6.794;2024-01-16T02:48:21;48.43;42.76;54.09;;
47109;Laerm;32856;51.422;6.794;2024-01-16T02:50:48;53.68;41.46;70.84;;
47109;Laerm;32856;51.422;6.794;2024-01-16T02:53:15;47.75;42.41;52.08;;
47109;Laerm;32856;51.422;6.794;2024-01-16T02:55:43;48.21;42.16;54.99;;
47109;Laerm;32856;51.422;6.794;2024-01-16T02:58:11;56.04;42.22;74.06;;
47109;Laerm;32856;51.422;6.794;2024-01-16T03:00:39;62.36;43.04;82.35;;
47109;Laerm;32856;51.422;6.794;2024-01-16T03:03:07;50.42;41.82;57.98;;
47109;Laerm;32856;51.422;6.794;2024-01-16T03:05:35;52.73;43.90;67.67;;
47109;Laerm;32856;51.422;6.794;2024-01-16T03:08:03;59.18;43.94;76.70;;
47109;Laerm;32856;51.422;6.794;2024-01-16T03:10:31;51.56;43.09;58.03;;
47109;Laerm;32856;51.422;6.794;2024-01-16T03:12:58;46.08;40.98;53.03;;
47109;Laerm;32856;51.422;6.794;2024-01-16T03:15:27;61.33;45.83;75.68;;
47109;Laerm;32856;51.422;6.794;2024-01-16T03:17:56;48.62;44.90;52.71;;
47109;Laerm;32856;51.422;6.794;2024-01-16T03:20:23;53.87;43.77;68.78;;
47109;Laerm;32856;51.422;6.794;2024-01-16T03:22:50;48.70;42.93;54.67;;
47109;Laerm;32856;51.422;6.794;2024-01-16T03:25:18;51.84;42.35;66.97;;
47109;Laerm;32856;51.422;6.794;2024-01-16T03:27:45;55.59;45.42;71.42;;
47109;Laerm;32856;51.422;6.794;2024-01-16T03:30:13;49.04;45.23;52.66;;
47109;Laerm;32856;51.422;6.794;2024-01-16T03:32:41;63.50;46.69;78.60;;
47109;Laerm;32856;51.422;6.794;2024-01-16T03:35:09;55.74;45.80;71.19;;
47109;Laerm;32856;51.422;6.794;2024-01-16T03:37:37;56.81;44.65;70.22;;
47109;Laerm;32856;51.422;6.794;2024-01-16T03:40:05;49.55;44.69;53.48;;
47109;Laerm;32856;51.422;6.794;2024-01-16T03:42:33;59.15;45.17;75.04;;
47109;Laerm;32856;51.422;6.794;2024-01-16T03:45:01;56.64;45.57;71.32;;
47109;Laerm;32856;51.422;6.794;2024-01-16T03:47:28;63.52;45.69;76.33;;
47109;Laerm;32856;51.422;6.794;2024-01-16T03:49:57;57.41;46.87;74.35;;
47109;Laerm;32856;51.422;6.794;2024-01-16T03:52:24;57.76;45.04;75.83;;
47109;Laerm;32856;51.422;6.794;2024-01-16T03:54:51;48.90;45.69;52.17;;
47109;Laerm;32856;51.422;6.794;2024-01-16T03:57:19;55.60;46.91;73.04;;
47109;Laerm;32856;51.422;6.794;2024-01-16T03:59:46;59.16;45.91;75.56;;
47109;Laerm;32856;51.422;6.794;2024-01-16T04:02:14;51.96;46.40;64.15;;
47109;Laerm;32856;51.422;6.794;2024-01-16T04:04:41;59.99;44.43;72.95;;
47109;Laerm;32856;51.422;6.794;2024-01-16T04:07:10;57.53;46.02;72.30;;
47109;Laerm;32856;51.422;6.794;2024-01-16T04:09:37;56.08;47.26;74.12;;
47109;Laerm;32856;51.422;6.794;2024-01-16T04:12:05;51.56;47.52;58.25;;
47109;Laerm;32856;51.422;6.794;2024-01-16T04:14:34;62.24;49.14;76.06;;
47109;Laerm;32856;51.422;6.794;2024-01-16T04:17:02;63.54;47.10;80.28;;
47109;Laerm;32856;51.422;6.794;2024-01-16T04:19:29;55.07;46.73;69.18;;
47109;Laerm;32856;51.422;6.794;2024-01-16T04:21:59;59.83;48.29;72.64;;
47109;Laerm;32856;51.422;6.794;2024-01-16T04:24:29;57.06;46.38;74.08;;
47109;Laerm;32856;51.422;6.794;2024-01-16T04:26:56;58.98;48.02;73.08;;
47109;Laerm;32856;51.422;6.794;2024-01-16T04:29:23;59.87;49.11;73.29;;
47109;Laerm;32856;51.422;6.794;2024-01-16T04:31:51;62.17;49.25;73.27;;
47109;Laerm;32856;51.422;6.794;2024-01-16T04:34:18;59.37;47.50;72.61;;
47109;Laerm;32856;51.422;6.794;2024-01-16T04:36:45;52.59;48.45;61.29;;
47109;Laerm;32856;51.422;6.794;2024-01-16T04:39:13;59.94;49.18;74.27;;
47109;Laerm;32856;51.422;6.794;2024-01-16T04:41:42;58.21;47.32;71.79;;
47109;Laerm;32856;51.422;6.794;2024-01-16T04:44:09;62.20;49.73;79.46;;
47109;Laerm;32856;51.422;6.794;2024-01-16T04:46:37;63.35;48.84;73.65;;
47109;Laerm;32856;51.422;6.794;2024-01-16T04:49:05;63.40;49.46;77.34;;
47109;Laerm;32856;51.422;6.794;2024-01-16T04:51:32;60.75;47.79;74.39;;
47109;Laerm;32856;51.422;6.794;2024-01-16T04:53:59;61.47;49.38;75.25;;
47109;Laerm;32856;51.422;6.794;2024-01-16T04:56:27;64.37;50.07;76.41;;
47109;Laerm;32856;51.422;6.794;2024-01-16T04:58:56;61.16;49.47;74.19;;
47109;Laerm;32856;51.422;6.794;2024-01-16T05:01:23;61.08;49.41;74.96;;
47109;Laerm;32856;51.422;6.794;2024-01-16T05:03:51;61.40;48.51;75.36;;
47109;Laerm;32856;51.422;6.794;2024-01-16T05:06:18;57.56;48.96;70.64;;
47109;Laerm;32856;51.422;6.794;2024-01-16T05:08:46;59.53;49.38;70.62;;
47109;Laerm;32856;51.422;6.794;2024-01-16T05:11:13;60.93;49.00;73.91;;
47109;Laerm;32856;51.422;6.794;2024-01-16T05:13:40;62.65;49.89;76.30;;
47109;Laerm;32856;51.422;6.794;2024-01-16T05:16:09;61.78;49.58;74.56;;
47109;Laerm;32856;51.422;6.794;2024-01-16T05:18:36;62.14;50.11;75.11;;
47109;Laerm;32856;51.422;6.794;2024-01-16T05:21:04;62.26;49.40;74.50;;
47109;Laerm;32856;51.422;6.794;2024-01-16T05:23:33;62.25;50.71;76.79;;
47109;Laerm;32856;51.422;6.794;2024-01-16T05:26:00;62.33;50.36;74.00;;
47109;Laerm;32856;51.422;6.794;2024-01-16T05:28:28;65.14;51.86;77.77;;
47109;Laerm;32856;51.422;6.794;2024-01-16T05:30:55;61.95;50.97;72.75;;
47109;Laerm;32856;51.422;6.794;2024-01-16T05:33:24;65.22;51.66;87.23;;
47109;Laerm;32856;51.422;6.794;2024-01-16T05:35:51;63.36;50.92;76.86;;
47109;Laerm;32856;51.422;6.794;2024-01-16T05:38:19;65.08;51.85;77.53;;
47109;Laerm;32856;51.422;6.794;2024-01-16T05:40:46;62.78;50.56;74.15;;
47109;Laerm;32856;51.422;6.794;2024-01-16T05:43:13;61.41;50.17;73.03;;
47109;Laerm;32856;51.422;6.794;2024-01-16T05:45:43;62.58;51.06;75.35;;
47109;Laerm;32856;51.422;6.794;2024-01-16T05:48:10;61.79;50.39;73.53;;
47109;Laerm;32856;51.422;6.794;2024-01-16T05:50:40;63.27;51.11;74.53;;
47109;Laerm;32856;51.422;6.794;2024-01-16T05:53:08;62.45;50.51;76.26;;
47109;Laerm;32856;51.422;6.794;2024-01-16T05:55:35;65.83;52.46;78.00;;
47109;Laerm;32856;51.422;6.794;2024-01-16T05:58:03;60.59;51.01;75.00;;
47109;Laerm;32856;51.422;6.794;2024-01-16T06:00:30;62.16;51.87;73.66;;
47109;Laerm;32856;51.422;6.794;2024-01-16T06:02:59;64.05;51.28;76.16;;
47109;Laerm;32856;51.422;6.794;2024-01-16T06:05:27;62.21;51.57;74.10;;
47109;Laerm;32856;51.422;6.794;2024-01-16T06:07:55;63.74;51.48;75.50;;
47109;Laerm;32856;51.422;6.794;2024-01-16T06:10:23;63.52;50.52;73.41;;
47109;Laerm;32856;51.422;6.794;2024-01-16T06:12:50;65.09;52.30;74.42;;
47109;Laerm;32856;51.422;6.794;2024-01-16T06:15:17;65.09;53.34;74.28;;
47109;Laerm;32856;51.422;6.794;2024-01-16T06:17:46;62.05;51.15;72.86;;
47109;Laerm;32856;51.422;6.794;2024-01-16T06:20:13;64.40;52.37;74.25;;
47109;Laerm;32856;51.422;6.794;2024-01-16T06:22:41;64.43;50.89;75.04;;
47109;Laerm;32856;51.422;6.794;2024-01-16T06:25:09;65.69;49.45;77.97;;
47109;Laerm;32856;51.422;6.794;2024-01-16T06:27:37;65.12;50.74;74.06;;
47109;Laerm;32856;51.422;6.794;2024-01-16T06:30:04;66.87;54.31;76.19;;
47109;Laerm;32856;51.422;6.794;2024-01-16T06:32:34;64.31;50.42;74.68;;
47109;Laerm;32856;51.422;6.794;2024-01-16T06:35:02;65.65;50.41;75.46;;
47109;Laerm;32856;51.422;6.794;2024-01-16T06:37:29;64.78;51.05;73.79;;
47109;Laerm;32856;51.422;6.794;2024-01-16T06:39:56;65.17;52.09;76.80;;
47109;Laerm;32856;51.422;6.794;2024-01-16T06:42:25;65.81;50.30;76.20;;
47109;Laerm;32856;51.422;6.794;2024-01-16T06:44:52;66.38;52.17;75.28;;
47109;Laerm;32856;51.422;6.794;2024-01-16T06:47:20;66.16;50.98;80.12;;
47109;Laerm;32856;51.422;6.794;2024-01-16T06:49:47;65.33;52.16;74.12;;
47109;Laerm;32856;51.422;6.794;2024-01-16T06:52:14;66.39;52.60;77.05;;
47109;Laerm;32856;51.422;6.794;2024-01-16T06:54:42;64.90;52.26;75.34;;
47109;Laerm;32856;51.422;6.794;2024-01-16T06:57:09;63.10;50.66;77.25;;
47109;Laerm;32856;51.422;6.794;2024-01-16T06:59:38;65.57;50.98;75.16;;
47109;Laerm;32856;51.422;6.794;2024-01-16T07:02:05;67.23;57.01;76.98;;
47109;Laerm;32856;51.422;6.794;2024-01-16T07:04:34;67.84;52.11;79.48;;
47109;Laerm;32856;51.422;6.794;2024-01-16T07:07:01;67.54;51.06;79.61;;
47109;Laerm;32856;51.422;6.794;2024-01-16T07:09:29;68.68;51.17;79.56;;
47109;Laerm;32856;51.422;6.794;2024-01-16T07:11:56;69.02;53.92;87.35;;
47109;Laerm;32856;51.422;6.794;2024-01-16T07:14:24;67.40;51.97;79.93;;
47109;Laerm;32856;51.422;6.794;2024-01-16T07:16:52;67.87;52.43;80.25;;
47109;Laerm;32856;51.422;6.794;2024-01-16T07:19:20;68.19;51.70;85.40;;
47109;Laerm;32856;51.422;6.794;2024-01-16T07:21:47;68.79;52.54;78.98;;
47109;Laerm;32856;51.422;6.794;2024-01-16T07:24:14;68.05;52.63;78.15;;
47109;Laerm;32856;51.422;6.794;2024-01-16T07:26:42;66.47;51.07;77.64;;
47109;Laerm;32856;51.422;6.794;2024-01-16T07:29:09;70.64;51.97;86.37;;
47109;Laerm;32856;51.422;6.794;2024-01-16T07:31:37;65.90;51.91;80.20;;
47109;Laerm;32856;51.422;6.794;2024-01-16T07:34:05;67.63;50.03;80.54;;
47109;Laerm;32856;51.422;6.794;2024-01-16T07:36:33;67.21;50.88;80.34;;
47109;Laerm;32856;51.422;6.794;2024-01-16T07:39:00;68.03;52.46;79.32;;
47109;Laerm;32856;51.422;6.794;2024-01-16T07:41:28;65.37;50.34;76.74;;
47109;Laerm;32856;51.422;6.794;2024-01-16T07:43:55;67.71;52.08;78.93;;
47109;Laerm;32856;51.422;6.794;2024-01-16T07:46:22;66.21;49.74;76.98;;
47109;Laerm;32856;51.422;6.794;2024-01-16T07:48:50;68.26;53.51;80.89;;
47109;Laerm;32856;51.422;6.794;2024-01-16T07:51:19;67.24;53.75;76.60;;
47109;Laerm;32856;51.422;6.794;2024-01-16T07:53:46;68.29;53.13;78.94;;
47109;Laerm;32856;51.422;6.794;2024-01-16T07:56:15;69.18;52.76;78.12;;
47109;Laerm;32856;51.422;6.794;2024-01-16T07:58:42;65.86;52.62;76.17;;
47109;Laerm;32856;51.422;6.794;2024-01-16T08:01:09;66.18;52.16;77.02;;
47109;Laerm;32856;51.422;6.794;2024-01-16T08:03:37;66.26;51.66;77.60;;
47109;Laerm;32856;51.422;6.794;2024-01-16T08:06:05;63.95;51.22;77.20;;
47109;Laerm;32856;51.422;6.794;2024-01-16T08:08:34;66.89;51.68;80.58;;
47109;Laerm;32856;51.422;6.794;2024-01-16T08:11:01;66.70;53.75;79.63;;
47109;Laerm;32856;51.422;6.794;2024-01-16T08:13:28;63.68;51.00;75.78;;
47109;Laerm;32856;51.422;6.794;2024-01-16T08:15:56;62.52;50.34;73.81;;
47109;Laerm;32856;51.422;6.794;2024-01-16T08:18:23;66.29;52.50;77.70;;
47109;Laerm;32856;51.422;6.794;2024-01-16T08:20:50;66.74;51.73;87.00;;
47109;Laerm;32856;51.422;6.794;2024-01-16T08:23:18;65.82;50.26;77.63;;
47109;Laerm;32856;51.422;6.794;2024-01-16T08:25:48;67.64;53.08;78.74;;
47109;Laerm;32856;51.422;6.794;2024-01-16T08:28:17;64.35;49.08;76.07;;
47109;Laerm;32856;51.422;6.794;2024-01-16T08:30:48;65.35;51.04;77.09;;
47109;Laerm;32856;51.422;6.794;2024-01-16T08:33:16;64.43;51.37;75.51;;
47109;Laerm;32856;51.422;6.794;2024-01-16T08:35:46;68.30;51.18;81.52;;
47109;Laerm;32856;51.422;6.794;2024-01-16T08:38:14;68.23;51.63;83.38;;
47109;Laerm;32856;51.422;6.794;2024-01-16T08:40:41;66.99;53.82;78.29;;
47109;Laerm;32856;51.422;6.794;2024-01-16T08:43:11;65.20;50.32;76.88;;
47109;Laerm;32856;51.422;6.794;2024-01-16T08:45:38;66.33;51.56;79.18;;
47109;Laerm;32856;51.422;6.794;2024-01-16T08:48:06;64.51;50.71;79.62;;
47109;Laerm;32856;51.422;6.794;2024-01-16T08:50:33;66.75;52.28;78.46;;
47109;Laerm;32856;51.422;6.794;2024-01-16T08:53:00;66.94;52.11;76.45;;
47109;Laerm;32856;51.422;6.794;2024-01-16T08:55:28;68.46;52.81;81.82;;
47109;Laerm;32856;51.422;6.794;2024-01-16T08:57:56;67.24;51.07;80.46;;
47109;Laerm;32856;51.422;6.794;2024-01-16T09:00:25;67.01;49.89;79.34;;
47109;Laerm;32856;51.422;6.794;2024-01-16T09:02:53;65.26;51.13;80.70;;
47109;Laerm;32856;51.422;6.794;2024-01-16T09:05:20;67.86;51.22;86.38;;
47109;Laerm;32856;51.422;6.794;2024-01-16T09:07:51;68.73;51.64;82.62;;
47109;Laerm;32856;51.422;6.794;2024-01-16T09:10:19;68.25;53.65;81.74;;
47109;Laerm;32856;51.422;6.794;2024-01-16T09:12:47;65.97;51.59;81.38;;
47109;Laerm;32856;51.422;6.794;2024-01-16T09:15:14;66.54;52.15;78.97;;
47109;Laerm;32856;51.422;6.794;2024-01-16T09:17:43;67.90;51.40;82.65;;
47109;Laerm;32856;51.422;6.794;2024-01-16T09:20:11;66.96;51.26;80.30;;
47109;Laerm;32856;51.422;6.794;2024-01-16T09:22:38;63.22;50.21;74.72;;
47109;Laerm;32856;51.422;6.794;2024-01-16T09:25:06;65.09;53.50;77.94;;
47109;Laerm;32856;51.422;6.794;2024-01-16T09:27:33;68.30;50.86;80.38;;
47109;Laerm;32856;51.422;6.794;2024-01-16T09:30:01;63.75;51.19;77.36;;
47109;Laerm;32856;51.422;6.794;2024-01-16T09:32:30;66.89;51.12;79.45;;
47109;Laerm;32856;51.422;6.794;2024-01-16T09:34:59;65.77;50.81;77.72;;
47109;Laerm;32856;51.422;6.794;2024-01-16T09:37:29;65.56;50.36;77.23;;
47109;Laerm;32856;51.422;6.794;2024-01-16T09:39:56;64.57;50.21;79.27;;
47109;Laerm;32856;51.422;6.794;2024-01-16T09:42:23;65.11;51.59;76.45;;
47109;Laerm;32856;51.422;6.794;2024-01-16T09:44:52;68.82;51.53;82.59;;
47109;Laerm;32856;51.422;6.794;2024-01-16T09:47:19;69.64;52.27;84.71;;
47109;Laerm;32856;51.422;6.794;2024-01-16T09:49:47;66.63;52.41;81.05;;
47109;Laerm;32856;51.422;6.794;2024-01-16T09:52:16;64.55;51.30;75.44;;
47109;Laerm;32856;51.422;6.794;2024-01-16T09:54:43;65.69;50.62;79.30;;
47109;Laerm;32856;51.422;6.794;2024-01-16T09:57:10;68.23;51.03;79.89;;
47109;Laerm;32856;51.422;6.794;2024-01-16T09:59:39;64.73;50.77;78.72;;
47109;Laerm;32856;51.422;6.794;2024-01-16T10:02:08;67.37;51.64;83.70;;
47109;Laerm;32856;51.422;6.794;2024-01-16T10:04:37;64.13;50.65;77.75;;
47109;Laerm;32856;51.422;6.794;2024-01-16T10:07:05;67.55;51.62;83.06;;
47109;Laerm;32856;51.422;6.794;2024-01-16T10:09:34;66.76;52.30;77.64;;
47109;Laerm;32856;51.422;6.794;2024-01-16T10:12:01;66.91;50.85;80.33;;
47109;Laerm;32856;51.422;6.794;2024-01-16T10:14:29;63.49;50.02;75.82;;
47109;Laerm;32856;51.422;6.794;2024-01-16T10:17:00;66.66;51.63;80.20;;
47109;Laerm;32856;51.422;6.794;2024-01-16T10:19:29;64.04;50.90;75.18;;
47109;Laerm;32856;51.422;6.794;2024-01-16T10:22:04;67.31;51.18;82.11;;
47109;Laerm;32856;51.422;6.794;2024-01-16T10:24:33;65.79;51.88;82.54;;
47109;Laerm;32856;51.422;6.794;2024-01-16T10:27:01;65.54;51.44;78.17;;
47109;Laerm;32856;51.422;6.794;2024-01-16T10:29:29;69.19;52.76;81.54;;
47109;Laerm;32856;51.422;6.794;2024-01-16T10:32:06;65.04;50.64;80.04;;
47109;Laerm;32856;51.422;6.794;2024-01-16T10:34:35;67.21;50.53;81.45;;
47109;Laerm;32856;51.422;6.794;2024-01-16T10:37:03;65.27;51.14;79.25;;
47109;Laerm;32856;51.422;6.794;2024-01-16T10:39:30;65.45;50.42;77.17;;
47109;Laerm;32856;51.422;6.794;2024-01-16T10:42:05;64.55;51.23;79.51;;
47109;Laerm;32856;51.422;6.794;2024-01-16T10:44:32;65.60;51.53;79.91;;
47109;Laerm;32856;51.422;6.794;2024-01-16T10:47:09;66.75;51.47;80.94;;
47109;Laerm;32856;51.422;6.794;2024-01-16T10:49:37;64.67;50.56;76.30;;
47109;Laerm;32856;51.422;6.794;2024-01-16T10:52:09;66.98;50.36;82.26;;
47109;Laerm;32856;51.422;6.794;2024-01-16T10:54:39;68.85;51.82;88.25;;
47109;Laerm;32856;51.422;6.794;2024-01-16T10:57:09;66.34;51.43;75.56;;
47109;Laerm;32856;51.422;6.794;2024-01-16T10:59:38;65.96;50.32;78.67;;
47109;Laerm;32856;51.422;6.794;2024-01-16T11:02:07;66.52;50.02;78.06;;
47109;Laerm;32856;51.422;6.794;2024-01-16T11:04:36;64.33;48.40;75.37;;
47109;Laerm;32856;51.422;6.794;2024-01-16T11:07:04;63.52;50.57;75.22;;
47109;Laerm;32856;51.422;6.794;2024-01-16T11:09:32;65.64;50.18;78.79;;
47109;Laerm;32856;51.422;6.794;2024-01-16T11:12:00;67.88;50.43;87.16;;
47109;Laerm;32856;51.422;6.794;2024-01-16T11:14:30;68.02;49.77;79.60;;
47109;Laerm;32856;51.422;6.794;2024-01-16T11:16:58;66.37;51.56;75.50;;
47109;Laerm;32856;51.422;6.794;2024-01-16T11:19:27;65.36;48.77;76.55;;
47109;Laerm;32856;51.422;6.794;2024-01-16T11:22:03;69.00;49.36;78.63;;
47109;Laerm;32856;51.422;6.794;2024-01-16T11:24:31;63.72;51.39;75.63;;
47109;Laerm;32856;51.422;6.794;2024-01-16T11:26:58;63.01;49.56;75.27;;
47109;Laerm;32856;51.422;6.794;2024-01-16T11:29:36;67.30;50.21;79.84;;
47109;Laerm;32856;51.422;6.794;2024-01-16T11:32:04;66.72;49.58;83.65;;
47109;Laerm;32856;51.422;6.794;2024-01-16T11:34:53;64.99;50.97;75.26;;
47109;Laerm;32856;51.422;6.794;2024-01-16T11:37:29;67.90;51.02;77.69;;
47109;Laerm;32856;51.422;6.794;2024-01-16T11:42:45;64.89;50.19;78.34;;
47109;Laerm;32856;51.422;6.794;2024-01-16T11:48:09;64.54;50.84;77.88;;
47109;Laerm;32856;51.422;6.794;2024-01-16T11:50:37;65.73;49.77;77.71;;
47109;Laerm;32856;51.422;6.794;2024-01-16T11:53:04;69.16;52.12;82.86;;
47109;Laerm;32856;51.422;6.794;2024-01-16T11:55:32;63.33;49.83;78.46;;
47109;Laerm;32856;51.422;6.794;2024-01-16T11:58:10;67.05;51.05;80.94;;
47109;Laerm;32856;51.422;6.794;2024-01-16T12:00:45;67.61;50.52;78.15;;
47109;Laerm;32856;51.422;6.794;2024-01-16T12:03:14;64.86;50.32;75.72;;
47109;Laerm;32856;51.422;6.794;2024-01-16T12:05:54;66.32;50.27;78.62;;
47109;Laerm;32856;51.422;6.794;2024-01-16T12:08:22;68.02;51.89;82.82;;
47109;Laerm;32856;51.422;6.794;2024-01-16T12:10:50;67.63;51.17;80.25;;
47109;Laerm;32856;51.422;6.794;2024-01-16T12:13:17;66.67;50.78;81.00;;
47109;Laerm;32856;51.422;6.794;2024-01-16T12:15:44;67.40;51.42;81.08;;
47109;Laerm;32856;51.422;6.794;2024-01-16T12:18:18;64.94;48.15;76.24;;
47109;Laerm;32856;51.422;6.794;2024-01-16T12:20:52;68.51;49.58;79.71;;
47109;Laerm;32856;51.422;6.794;2024-01-16T12:23:19;65.97;50.53;76.86;;
47109;Laerm;32856;51.422;6.794;2024-01-16T12:25:51;66.23;51.62;78.12;;
47109;Laerm;32856;51.422;6.794;2024-01-16T12:28:24;63.99;49.62;77.59;;
47109;Laerm;32856;51.422;6.794;2024-01-16T12:30:56;65.94;50.47;75.77;;
47109;Laerm;32856;51.422;6.794;2024-01-16T12:33:25;65.86;48.70;77.38;;
47109;Laerm;32856;51.422;6.794;2024-01-16T12:36:00;65.99;49.75;76.36;;
47109;Laerm;32856;51.422;6.794;2024-01-16T12:38:27;65.77;49.02;75.58;;
47109;Laerm;32856;51.422;6.794;2024-01-16T12:40:55;64.92;49.41;75.26;;
47109;Laerm;32856;51.422;6.794;2024-01-16T12:43:22;66.38;48.85;76.72;;
47109;Laerm;32856;51.422;6.794;2024-01-16T12:45:54;68.04;49.95;76.58;;
47109;Laerm;32856;51.422;6.794;2024-01-16T12:48:22;67.26;49.51;77.59;;
47109;Laerm;32856;51.422;6.794;2024-01-16T12:50:52;65.12;49.25;78.58;;
47109;Laerm;32856;51.422;6.794;2024-01-16T12:53:25;66.78;47.10;77.23;;
47109;Laerm;32856;51.422;6.794;2024-01-16T12:55:57;65.49;48.61;75.84;;
47109;Laerm;32856;51.422;6.794;2024-01-16T12:58:24;65.21;48.21;76.72;;
47109;Laerm;32856;51.422;6.794;2024-01-16T13:00:54;66.73;49.84;80.01;;
47109;Laerm;32856;51.422;6.794;2024-01-16T13:03:22;67.87;48.83;76.13;;
47109;Laerm;32856;51.422;6.794;2024-01-16T13:05:57;65.17;46.95;77.39;;
47109;Laerm;32856;51.422;6.794;2024-01-16T13:08:25;66.90;48.49;80.88;;
47109;Laerm;32856;51.422;6.794;2024-01-16T13:11:02;65.12;48.54;76.46;;
47109;Laerm;32856;51.422;6.794;2024-01-16T13:13:29;66.11;48.21;83.54;;
47109;Laerm;32856;51.422;6.794;2024-01-16T13:15:57;67.52;49.47;83.92;;
47109;Laerm;32856;51.422;6.794;2024-01-16T13:18:24;63.91;49.39;76.16;;
47109;Laerm;32856;51.422;6.794;2024-01-16T13:20:53;67.47;49.90;79.35;;
47109;Laerm;32856;51.422;6.794;2024-01-16T13:23:23;66.13;49.52;77.57;;
47109;Laerm;32856;51.422;6.794;2024-01-16T13:25:52;65.10;49.51;74.63;;
47109;Laerm;32856;51.422;6.794;2024-01-16T13:28:20;67.42;51.49;77.68;;
47109;Laerm;32856;51.422;6.794;2024-01-16T13:30:49;67.48;52.83;78.47;;
47109;Laerm;32856;51.422;6.794;2024-01-16T13:33:17;65.49;50.95;75.76;;
47109;Laerm;32856;51.422;6.794;2024-01-16T13:35:45;65.65;49.39;77.33;;
47109;Laerm;32856;51.422;6.794;2024-01-16T13:38:13;66.31;48.18;79.58;;
47109;Laerm;32856;51.422;6.794;2024-01-16T13:40:43;66.76;50.00;77.89;;
47109;Laerm;32856;51.422;6.794;2024-01-16T13:43:10;66.01;48.99;76.86;;
47109;Laerm;32856;51.422;6.794;2024-01-16T13:45:38;69.62;53.96;80.20;;
47109;Laerm;32856;51.422;6.794;2024-01-16T13:48:07;68.57;53.44;79.16;;
47109;Laerm;32856;51.422;6.794;2024-01-16T13:50:35;65.26;52.66;76.32;;
47109;Laerm;32856;51.422;6.794;2024-01-16T13:53:03;67.50;48.60;78.27;;
47109;Laerm;32856;51.422;6.794;2024-01-16T13:55:30;66.60;48.87;76.89;;